8°C
Woerden, The Nederlands
Taal:  Nederlands
Updated27/01/2020 23:40 
 
WeerStation Woerden Historical Data
 
Daily Summary for January 27, 2020 Units:  Metric    English   Both
Daily Weekly Monthly Yearly Custom
  Current: High: Low: Average:
Temperature: 7.5 °C 9.3 °C 6.9 °C 8.2 °C
Dew Point: -8.2 °C 5.9 °C -31.9 °C -2.2 °C
Humidity: 32% 81% 4% 54%
Wind Speed: 20.9km/h 33.3km/h 3.2km/h 17.1km/h
Wind Gust: 40.2km/h 40.2km/h - -
WindSouth - - South
Pressure: 990.2 hPa 1008.4 hPa 990.2 hPa -
Precipitation: 13.0 mm      
Historical Graphs
 
 
Tabular Data for January 27, 2020
Time Temperature Dew Point Pressure Wind Wind Speed Wind Gust Humidity Rainfall Rate (Hourly) solar
00:00 7.1 °C 0.8 °C 1008.4 hPa South 14.5 km/h 25.7 km/h 64% 0.2 mm WeatherDisplay:10.37 W/m2
00:05 7.1 °C 0.3 °C 1008.3 hPa SSE 22.2 km/h 18.3 km/h 62% 0.0 mm WeatherDisplay:10.37 W/m2
00:10 7.1 °C -0.2 °C 1008.3 hPa South 16.1 km/h 25.7 km/h 60% 0.0 mm WeatherDisplay:10.37 W/m2
00:15 7.0 °C -0.5 °C 1008.2 hPa SSE 22.2 km/h 17.1 km/h 59% 0.2 mm WeatherDisplay:10.37 W/m2
00:20 7.0 °C -0.9 °C 1008.1 hPa SSE 19.3 km/h 27.4 km/h 57% 0.4 mm WeatherDisplay:10.37 W/m2
00:25 7.0 °C -1.4 °C 1008.1 hPa SSE 24.1 km/h 17.1 km/h 55% 0.6 mm WeatherDisplay:10.37 W/m2
00:30 7.0 °C -1.9 °C 1008.0 hPa South 19.3 km/h 32.2 km/h 53% 0.8 mm WeatherDisplay:10.37 W/m2
00:35 6.9 °C -2.8 °C 1007.9 hPa SSE 25.9 km/h 16.7 km/h 50% 1.2 mm WeatherDisplay:10.37 W/m2
00:40 6.9 °C -3.6 °C 1007.9 hPa SSE 22.5 km/h 29.0 km/h 47% 1.2 mm WeatherDisplay:10.37 W/m2
00:45 6.9 °C -4.2 °C 1007.8 hPa SE 31.5 km/h 23.3 km/h 45% 1.4 mm WeatherDisplay:10.37 W/m2
00:50 6.9 °C -4.8 °C 1007.8 hPa South 20.9 km/h 32.2 km/h 43% 1.2 mm WeatherDisplay:10.37 W/m2
00:55 7.0 °C -5.7 °C 1007.8 hPa SSE 31.5 km/h 19.6 km/h 40% 1.4 mm WeatherDisplay:10.37 W/m2
01:00 7.0 °C -6.4 °C 1007.8 hPa South 20.9 km/h 32.2 km/h 38% 1.8 mm WeatherDisplay:10.37 W/m2
01:05 7.1 °C -7.1 °C 1007.7 hPa SSE 25.9 km/h 19.1 km/h 36% 1.6 mm WeatherDisplay:10.37 W/m2
01:10 7.1 °C -7.4 °C 1007.7 hPa SSE 16.1 km/h 38.6 km/h 35% 1.6 mm WeatherDisplay:10.37 W/m2
01:15 7.1 °C -7.7 °C 1007.7 hPa SSE 24.1 km/h 17.7 km/h 34% 1.4 mm WeatherDisplay:10.37 W/m2
01:20 7.2 °C -7.3 °C 1007.6 hPa South 19.3 km/h 29.0 km/h 35% 1.4 mm WeatherDisplay:10.37 W/m2
01:25 7.2 °C -7.7 °C 1007.6 hPa SSE 27.8 km/h 19.8 km/h 34% 1.4 mm WeatherDisplay:10.37 W/m2
01:30 7.2 °C -8.1 °C 1007.5 hPa South 19.3 km/h 29.0 km/h 33% 1.2 mm WeatherDisplay:10.37 W/m2
01:35 7.2 °C -9.2 °C 1007.6 hPa SSE 22.2 km/h 15.9 km/h 30% 0.8 mm WeatherDisplay:10.37 W/m2
01:40 7.2 °C -10.1 °C 1007.4 hPa South 19.3 km/h 27.4 km/h 28% 1.2 mm WeatherDisplay:10.37 W/m2
01:45 7.3 °C -11.4 °C 1007.4 hPa SSW 20.4 km/h 15.6 km/h 25% 1.0 mm WeatherDisplay:10.37 W/m2
01:50 7.3 °C -11.9 °C 1007.4 hPa South 19.3 km/h 27.4 km/h 24% 1.4 mm WeatherDisplay:10.37 W/m2
01:55 7.4 °C -13.0 °C 1007.3 hPa South 22.2 km/h 15.8 km/h 22% 1.6 mm WeatherDisplay:10.37 W/m2
02:00 7.4 °C -13.6 °C 1007.2 hPa South 16.1 km/h 25.7 km/h 21% 1.8 mm WeatherDisplay:10.37 W/m2
02:05 7.4 °C -14.1 °C 1007.1 hPa SSE 20.4 km/h 16.7 km/h 20% 1.8 mm WeatherDisplay:10.37 W/m2
02:10 7.4 °C -14.1 °C 1007.0 hPa South 19.3 km/h 35.4 km/h 20% 2.0 mm WeatherDisplay:10.37 W/m2
02:15 7.5 °C -14.7 °C 1007.0 hPa SSE 20.4 km/h 17.1 km/h 19% 2.0 mm WeatherDisplay:10.37 W/m2
02:20 7.6 °C -15.3 °C 1007.0 hPa South 12.9 km/h 35.4 km/h 18% 2.0 mm WeatherDisplay:10.37 W/m2
02:25 7.6 °C -15.3 °C 1006.8 hPa SSE 31.5 km/h 20.0 km/h 18% 2.0 mm WeatherDisplay:10.37 W/m2
02:30 7.7 °C -15.2 °C 1006.7 hPa South 16.1 km/h 32.2 km/h 18% 2.2 mm WeatherDisplay:10.37 W/m2
02:35 7.8 °C -15.8 °C 1006.6 hPa South 31.5 km/h 21.2 km/h 17% 2.6 mm WeatherDisplay:10.37 W/m2
02:40 7.7 °C -14.5 °C 1006.6 hPa SSE 19.3 km/h 37.0 km/h 19% 2.4 mm WeatherDisplay:10.37 W/m2
02:45 7.7 °C -13.9 °C 1006.5 hPa SSE 25.9 km/h 15.9 km/h 20% 2.6 mm WeatherDisplay:10.37 W/m2
02:50 7.7 °C -14.5 °C 1006.5 hPa South 14.5 km/h 32.2 km/h 19% 2.4 mm WeatherDisplay:10.37 W/m2
02:55 7.7 °C -15.2 °C 1006.5 hPa SSW 18.5 km/h 13.2 km/h 18% 2.0 mm WeatherDisplay:10.37 W/m2
03:00 7.7 °C -16.6 °C 1006.5 hPa South 19.3 km/h 29.0 km/h 16% 2.0 mm WeatherDisplay:10.37 W/m2
03:05 7.8 °C -17.3 °C 1006.5 hPa SSW 27.8 km/h 16.7 km/h 15% 2.0 mm WeatherDisplay:10.37 W/m2
03:10 7.8 °C -19.0 °C 1006.5 hPa South 19.3 km/h 29.0 km/h 13% 2.0 mm WeatherDisplay:10.37 W/m2
03:15 7.8 °C -20.9 °C 1006.5 hPa South 22.2 km/h 13.4 km/h 11% 2.0 mm WeatherDisplay:10.37 W/m2
03:20 7.8 °C -22.0 °C 1006.4 hPa South 14.5 km/h 25.7 km/h 10% 2.0 mm WeatherDisplay:10.37 W/m2
03:25 7.9 °C -23.2 °C 1006.4 hPa SSE 22.5 km/h 11.4 km/h 9% 2.2 mm WeatherDisplay:10.37 W/m2
03:30 7.9 °C -24.4 °C 1006.3 hPa South 12.9 km/h 25.7 km/h 8% 2.2 mm WeatherDisplay:10.37 W/m2
03:35 7.9 °C -25.9 °C 1006.3 hPa South 16.7 km/h 10.6 km/h 7% 1.8 mm WeatherDisplay:10.37 W/m2
03:40 7.9 °C -25.9 °C 1006.3 hPa South 14.5 km/h 25.7 km/h 7% 1.6 mm WeatherDisplay:10.37 W/m2
03:45 7.9 °C -29.6 °C 1006.2 hPa SW 18.5 km/h 12.2 km/h 5% 1.4 mm WeatherDisplay:10.37 W/m2
03:50 8.0 °C -29.5 °C 1006.2 hPa South 12.9 km/h 32.2 km/h 5% 1.4 mm WeatherDisplay:10.37 W/m2
03:55 8.0 °C -31.9 °C 1006.1 hPa South 20.4 km/h 15.4 km/h 4% 1.4 mm WeatherDisplay:10.37 W/m2
04:00 8.0 °C -31.8 °C 1006.1 hPa SSW 14.5 km/h 32.2 km/h 4% 1.2 mm WeatherDisplay:10.37 W/m2
04:05 8.1 °C -29.4 °C 1006.1 hPa SSW 29.6 km/h 16.7 km/h 5% 1.2 mm WeatherDisplay:10.37 W/m2
04:10 8.1 °C -29.4 °C 1006.0 hPa South 14.5 km/h 32.2 km/h 5% 1.0 mm WeatherDisplay:10.37 W/m2
04:15 8.1 °C -27.4 °C 1006.1 hPa SE 27.8 km/h 18.0 km/h 6% 1.0 mm WeatherDisplay:10.37 W/m2
04:20 8.2 °C -25.7 °C 1006.1 hPa South 16.1 km/h 29.0 km/h 7% 0.8 mm WeatherDisplay:10.37 W/m2
04:25 8.2 °C -21.7 °C 1006.0 hPa SSW 33.3 km/h 16.7 km/h 10% 0.4 mm WeatherDisplay:10.37 W/m2
04:30 8.2 °C -19.6 °C 1006.0 hPa SSW 16.1 km/h 33.8 km/h 12% 0.2 mm WeatherDisplay:10.37 W/m2
04:35 8.2 °C -16.9 °C 1006.0 hPa SW 20.4 km/h 13.7 km/h 15% 0.2 mm WeatherDisplay:10.37 W/m2
04:40 8.3 °C -14.1 °C 1005.9 hPa SSW 14.5 km/h 27.4 km/h 19% 0.2 mm WeatherDisplay:10.37 W/m2
04:45 8.3 °C -11.2 °C 1005.9 hPa South 22.2 km/h 15.1 km/h 24% 0.2 mm WeatherDisplay:10.37 W/m2
04:50 8.3 °C -9.2 °C 1005.8 hPa WSW 24.1 km/h 13.7 km/h 28% 0.0 mm WeatherDisplay:10.37 W/m2
04:55 8.3 °C -7.1 °C 1005.8 hPa SSW 22.5 km/h 14.6 km/h 33% 0.0 mm WeatherDisplay:10.37 W/m2
05:00 8.3 °C -5.9 °C 1005.9 hPa SSW 14.5 km/h 27.4 km/h 36% 0.0 mm WeatherDisplay:10.37 W/m2
05:05 8.3 °C -4.8 °C 1005.8 hPa South 20.9 km/h 12.6 km/h 39% 0.0 mm WeatherDisplay:10.37 W/m2
05:10 8.3 °C -4.2 °C 1005.8 hPa SSW 12.9 km/h 25.7 km/h 41% 0.0 mm WeatherDisplay:10.37 W/m2
05:15 8.3 °C -3.8 °C 1005.8 hPa SSW 18.5 km/h 11.9 km/h 42% 0.0 mm WeatherDisplay:10.37 W/m2
05:20 8.3 °C -3.6 °C 1005.8 hPa SSW 11.3 km/h 27.4 km/h 43% 0.0 mm WeatherDisplay:10.37 W/m2
05:25 8.4 °C -3.2 °C 1005.8 hPa SW 22.2 km/h 13.8 km/h 44% 0.0 mm WeatherDisplay:10.37 W/m2
05:30 8.4 °C -2.8 °C 1005.7 hPa SSW 14.5 km/h 33.8 km/h 45% 0.0 mm WeatherDisplay:10.37 W/m2
05:35 8.4 °C -1.9 °C 1005.7 hPa SW 18.5 km/h 11.1 km/h 48% 0.0 mm WeatherDisplay:10.37 W/m2
05:40 8.4 °C -1.4 °C 1005.7 hPa SSW 11.3 km/h 25.7 km/h 50% 0.0 mm WeatherDisplay:10.37 W/m2
05:45 8.4 °C -1.4 °C 1005.6 hPa SSW 18.5 km/h 13.0 km/h 50% 0.0 mm WeatherDisplay:10.37 W/m2
05:50 8.4 °C -1.4 °C 1005.7 hPa SSW 9.7 km/h 22.5 km/h 50% 0.0 mm WeatherDisplay:10.37 W/m2
05:55 8.4 °C -1.4 °C 1005.5 hPa SSW 16.1 km/h 10.5 km/h 50% 0.0 mm WeatherDisplay:10.37 W/m2
06:00 8.4 °C -1.7 °C 1005.6 hPa South 12.9 km/h 20.9 km/h 49% 0.0 mm WeatherDisplay:10.37 W/m2
06:05 8.4 °C -1.7 °C 1005.5 hPa South 22.2 km/h 12.7 km/h 49% 0.0 mm WeatherDisplay:10.37 W/m2
06:10 8.4 °C -1.4 °C 1005.5 hPa SSW 11.3 km/h 25.7 km/h 50% 0.0 mm WeatherDisplay:10.37 W/m2
06:15 8.4 °C -1.7 °C 1005.4 hPa SSW 14.8 km/h 9.7 km/h 49% 0.0 mm WeatherDisplay:10.37 W/m2
06:20 8.5 °C -1.3 °C 1005.4 hPa SSW 11.3 km/h 20.9 km/h 50% 0.0 mm WeatherDisplay:10.37 W/m2
06:25 8.5 °C -1.6 °C 1005.2 hPa South 18.5 km/h 11.4 km/h 49% 0.0 mm WeatherDisplay:10.37 W/m2
06:30 8.5 °C -1.6 °C 1005.3 hPa SSW 12.9 km/h 24.1 km/h 49% 0.0 mm WeatherDisplay:10.37 W/m2
06:35 8.5 °C -1.9 °C 1005.2 hPa SSW 20.4 km/h 11.7 km/h 48% 0.0 mm WeatherDisplay:10.37 W/m2
06:40 8.5 °C -1.9 °C 1005.3 hPa SSW 9.7 km/h 20.9 km/h 48% 0.0 mm WeatherDisplay:10.37 W/m2
06:45 8.5 °C -2.8 °C 1005.3 hPa South 18.5 km/h 10.0 km/h 45% 0.0 mm WeatherDisplay:10.37 W/m2
06:50 8.5 °C -3.1 °C 1005.3 hPa South 9.7 km/h 22.5 km/h 44% 0.0 mm WeatherDisplay:10.37 W/m2
06:55 8.5 °C -3.7 °C 1005.1 hPa SSW 14.8 km/h 9.3 km/h 42% 0.0 mm WeatherDisplay:10.37 W/m2
07:00 8.5 °C -3.7 °C 1005.2 hPa South 11.3 km/h 22.5 km/h 42% 0.2 mm WeatherDisplay:10.37 W/m2
07:05 8.6 °C -3.3 °C 1005.2 hPa SSE 16.7 km/h 10.8 km/h 43% 0.2 mm WeatherDisplay:10.37 W/m2
07:10 8.5 °C -3.7 °C 1005.2 hPa SSW 11.3 km/h 22.5 km/h 42% 0.2 mm WeatherDisplay:10.37 W/m2
07:15 8.6 °C -3.7 °C 1005.3 hPa SSW 20.4 km/h 13.7 km/h 42% 0.2 mm WeatherDisplay:10.37 W/m2
07:20 8.6 °C -3.7 °C 1005.3 hPa SSW 9.7 km/h 25.7 km/h 42% 0.2 mm WeatherDisplay:10.37 W/m2
07:25 8.5 °C -4.3 °C 1005.4 hPa SSW 18.5 km/h 11.3 km/h 40% 0.2 mm WeatherDisplay:10.37 W/m2
07:30 8.6 °C -4.3 °C 1005.3 hPa SW 12.9 km/h 20.9 km/h 40% 0.2 mm WeatherDisplay:10.37 W/m2
07:35 8.6 °C -4.3 °C 1005.2 hPa South 24.1 km/h 11.1 km/h 40% 0.2 mm WeatherDisplay:10.37 W/m2
07:40 8.6 °C -4.3 °C 1005.2 hPa South 9.7 km/h 24.1 km/h 40% 0.2 mm WeatherDisplay:10.37 W/m2
07:45 8.6 °C -4.3 °C 1005.3 hPa SSW 16.7 km/h 10.8 km/h 40% 0.2 mm WeatherDisplay:10.37 W/m2
07:50 8.6 °C -4.6 °C 1005.2 hPa SSW 11.3 km/h 20.9 km/h 39% 0.2 mm WeatherDisplay:10.37 W/m2
07:55 8.6 °C -5.0 °C 1005.2 hPa SW 27.8 km/h 14.6 km/h 38% 0.2 mm WeatherDisplay:10.37 W/m2
08:00 8.6 °C -4.6 °C 1005.2 hPa SSW 12.9 km/h 27.4 km/h 39% 0.0 mm WeatherDisplay:10.37 W/m2
08:05 8.5 °C -4.3 °C 1005.2 hPa South 18.5 km/h 13.0 km/h 40% 0.0 mm WeatherDisplay:10.37 W/m2
08:10 8.5 °C -3.7 °C 1005.2 hPa SSW 11.3 km/h 20.9 km/h 42% 0.0 mm WeatherDisplay:10.37 W/m2
08:15 8.4 °C -3.4 °C 1005.1 hPa South 18.5 km/h 9.8 km/h 43% 0.0 mm WeatherDisplay:10.37 W/m2
08:20 8.4 °C -2.9 °C 1005.2 hPa SSW 11.3 km/h 19.3 km/h 45% 0.0 mm WeatherDisplay:10.37 W/m2
08:25 8.3 °C -2.9 °C 1005.2 hPa South 16.7 km/h 10.1 km/h 45% 0.0 mm WeatherDisplay:10.37 W/m2
08:30 8.3 °C -2.9 °C 1005.2 hPa SSW 9.7 km/h 19.3 km/h 45% 0.0 mm WeatherDisplay:10.37 W/m2
08:35 8.3 °C -3.2 °C 1005.1 hPa SSW 16.7 km/h 10.5 km/h 44% 0.0 mm WeatherDisplay:10.37 W/m2
08:40 8.3 °C -3.6 °C 1005.1 hPa SW 9.7 km/h 19.3 km/h 43% 0.0 mm WeatherDisplay:10.37 W/m2
08:45 8.4 °C -3.8 °C 1005.1 hPa SSW 18.5 km/h 11.9 km/h 42% 0.0 mm WeatherDisplay:10.37 W/m2
08:50 8.4 °C -3.7 °C 1005.1 hPa SSW 9.7 km/h 19.3 km/h 42% 0.0 mm WeatherDisplay:10.37 W/m2
08:55 8.4 °C -3.4 °C 1005.1 hPa SSE 24.1 km/h 12.1 km/h 43% 0.0 mm WeatherDisplay:10.37 W/m2
09:00 8.5 °C -3.1 °C 1005.2 hPa SSW 9.7 km/h 24.1 km/h 44% 0.0 mm WeatherDisplay:10.37 W/m2
09:05 8.5 °C -2.8 °C 1005.1 hPa SW 16.7 km/h 11.7 km/h 45% 0.0 mm WeatherDisplay:10.37 W/m2
09:10 8.5 °C -2.2 °C 1005.1 hPa SSW 9.7 km/h 20.9 km/h 47% 0.0 mm WeatherDisplay:10.37 W/m2
09:15 8.5 °C -1.9 °C 1005.1 hPa South 11.3 km/h 7.2 km/h 48% 0.0 mm WeatherDisplay:10.37 W/m2
09:20 8.5 °C -1.6 °C 1005.1 hPa South 9.7 km/h 19.3 km/h 49% 0.0 mm WeatherDisplay:10.37 W/m2
09:25 8.6 °C -1.3 °C 1005.1 hPa SSE 22.2 km/h 11.9 km/h 50% 0.0 mm WeatherDisplay:10.37 W/m2
09:30 8.6 °C -0.8 °C 1005.1 hPa South 9.7 km/h 22.5 km/h 52% 0.0 mm WeatherDisplay:10.37 W/m2
09:35 8.6 °C -0.2 °C 1005.1 hPa WSW 13.0 km/h 8.7 km/h 54% 0.0 mm WeatherDisplay:10.37 W/m2
09:40 8.6 °C 0.3 °C 1005.1 hPa South 9.7 km/h 19.3 km/h 56% 0.0 mm WeatherDisplay:10.37 W/m2
09:45 8.6 °C 0.8 °C 1005.0 hPa SSW 16.7 km/h 8.7 km/h 58% 0.0 mm WeatherDisplay:10.37 W/m2
09:50 8.6 °C 1.2 °C 1005.1 hPa SSW 9.7 km/h 20.9 km/h 60% 0.0 mm WeatherDisplay:10.37 W/m2
09:55 8.5 °C 1.4 °C 1005.0 hPa SSW 16.7 km/h 9.3 km/h 61% 0.0 mm WeatherDisplay:10.37 W/m2
10:00 8.5 °C 1.4 °C 1005.0 hPa South 11.3 km/h 22.5 km/h 61% 0.0 mm WeatherDisplay:10.37 W/m2
10:05 8.6 °C 1.2 °C 1004.9 hPa South 18.5 km/h 11.4 km/h 60% 0.0 mm WeatherDisplay:10.37 W/m2
10:10 8.6 °C 1.5 °C 1004.9 hPa South 4.8 km/h 22.5 km/h 61% 0.0 mm WeatherDisplay:10.37 W/m2
10:15 8.6 °C 1.7 °C 1004.9 hPa SSW 14.8 km/h 10.6 km/h 62% 0.0 mm WeatherDisplay:10.37 W/m2
10:20 8.6 °C 1.7 °C 1005.0 hPa South 9.7 km/h 19.3 km/h 62% 0.0 mm WeatherDisplay:10.37 W/m2
10:25 8.6 °C 1.7 °C 1005.0 hPa SSE 16.7 km/h 10.8 km/h 62% 0.0 mm WeatherDisplay:10.37 W/m2
10:30 8.6 °C 1.7 °C 1005.0 hPa South 14.8 km/h 10.6 km/h 62% 0.0 mm WeatherDisplay:10.37 W/m2
10:35 8.6 °C 1.5 °C 1004.8 hPa South 11.3 km/h 8.8 km/h 61% 0.0 mm WeatherDisplay:10.37 W/m2
10:40 8.6 °C 1.7 °C 1004.8 hPa South 9.7 km/h 19.3 km/h 62% 0.0 mm WeatherDisplay:10.37 W/m2
10:45 8.7 °C 2.0 °C 1004.7 hPa SSW 18.5 km/h 12.4 km/h 63% 0.0 mm WeatherDisplay:10.37 W/m2
10:50 8.7 °C 2.3 °C 1004.6 hPa South 9.7 km/h 22.5 km/h 64% 0.0 mm WeatherDisplay:10.37 W/m2
10:55 8.8 °C 2.6 °C 1004.6 hPa SW 16.7 km/h 10.1 km/h 65% 0.0 mm WeatherDisplay:10.37 W/m2
11:00 8.8 °C 2.8 °C 1004.7 hPa South 9.7 km/h 19.3 km/h 66% 0.0 mm WeatherDisplay:10.37 W/m2
11:05 8.9 °C 2.9 °C 1004.6 hPa SSW 16.1 km/h 8.8 km/h 66% 0.0 mm WeatherDisplay:10.37 W/m2
11:10 8.9 °C 3.1 °C 1004.5 hPa South 11.3 km/h 19.3 km/h 67% 0.0 mm WeatherDisplay:10.37 W/m2
11:15 8.9 °C 3.3 °C 1004.4 hPa SSW 14.8 km/h 9.3 km/h 68% 0.0 mm WeatherDisplay:10.37 W/m2
11:20 9.0 °C 3.6 °C 1004.4 hPa South 12.9 km/h 22.5 km/h 69% 0.0 mm WeatherDisplay:10.37 W/m2
11:25 9.0 °C 4.0 °C 1004.4 hPa SSW 22.2 km/h 12.9 km/h 71% 0.0 mm WeatherDisplay:10.37 W/m2
11:30 9.0 °C 4.0 °C 1004.3 hPa SSW 12.9 km/h 29.0 km/h 71% 0.0 mm WeatherDisplay:10.37 W/m2
11:35 9.1 °C 4.1 °C 1004.3 hPa South 24.1 km/h 13.0 km/h 71% 0.0 mm WeatherDisplay:10.37 W/m2
11:40 9.1 °C 4.3 °C 1004.3 hPa South 12.9 km/h 27.4 km/h 72% 0.0 mm WeatherDisplay:10.37 W/m2
11:45 9.1 °C 4.4 °C 1004.2 hPa SE 16.7 km/h 11.3 km/h 73% 0.0 mm WeatherDisplay:10.37 W/m2
11:50 9.1 °C 4.4 °C 1004.3 hPa South 11.3 km/h 20.9 km/h 73% 0.0 mm WeatherDisplay:10.37 W/m2
11:55 9.1 °C 4.7 °C 1004.1 hPa SSE 20.4 km/h 12.6 km/h 74% 0.0 mm WeatherDisplay:10.37 W/m2
12:00 9.1 °C 4.7 °C 1004.2 hPa SSW 11.3 km/h 25.7 km/h 74% 0.0 mm WeatherDisplay:10.37 W/m2
12:05 9.1 °C 4.7 °C 1004.1 hPa SW 18.5 km/h 12.6 km/h 74% 0.0 mm WeatherDisplay:10.37 W/m2
12:10 9.1 °C 4.9 °C 1004.0 hPa South 11.3 km/h 27.4 km/h 75% 0.0 mm WeatherDisplay:10.37 W/m2
12:15 9.1 °C 4.9 °C 1003.9 hPa SSE 18.5 km/h 11.3 km/h 75% 0.0 mm WeatherDisplay:10.37 W/m2
12:20 9.1 °C 4.9 °C 1003.8 hPa SSW 12.9 km/h 22.5 km/h 75% 0.0 mm WeatherDisplay:10.37 W/m2
12:25 9.2 °C 4.9 °C 1003.6 hPa SW 20.4 km/h 15.4 km/h 75% 0.0 mm WeatherDisplay:10.37 W/m2
12:30 9.2 °C 5.0 °C 1003.6 hPa SSW 11.3 km/h 24.1 km/h 75% 0.0 mm WeatherDisplay:10.37 W/m2
12:35 9.2 °C 5.2 °C 1003.6 hPa SW 18.5 km/h 12.7 km/h 76% 0.0 mm WeatherDisplay:10.37 W/m2
12:40 9.3 °C 5.3 °C 1003.5 hPa South 17.7 km/h 8.7 km/h 76% 0.0 mm WeatherDisplay:10.37 W/m2
12:45 9.2 °C 5.4 °C 1003.6 hPa SSW 18.5 km/h 14.2 km/h 77% 0.0 mm WeatherDisplay:10.37 W/m2
12:50 9.2 °C 5.6 °C 1003.4 hPa SSW 19.3 km/h 29.0 km/h 78% 0.0 mm WeatherDisplay:10.37 W/m2
12:55 9.2 °C 5.6 °C 1003.2 hPa SW 29.6 km/h 19.3 km/h 78% 0.0 mm WeatherDisplay:10.37 W/m2
13:00 9.1 °C 5.5 °C 1003.2 hPa SW 19.3 km/h 29.0 km/h 78% 0.0 mm WeatherDisplay:10.37 W/m2
13:05 9.1 °C 5.7 °C 1003.1 hPa SW 22.2 km/h 18.5 km/h 79% 0.0 mm WeatherDisplay:10.37 W/m2
13:10 9.1 °C 5.6 °C 1003.1 hPa SSW 16.1 km/h 27.4 km/h 79% 0.0 mm WeatherDisplay:10.37 W/m2
13:15 9.1 °C 5.6 °C 1002.9 hPa SSW 22.5 km/h 14.2 km/h 79% 0.0 mm WeatherDisplay:10.37 W/m2
13:20 9.1 °C 5.6 °C 1002.8 hPa SW 16.1 km/h 32.2 km/h 79% 0.0 mm WeatherDisplay:10.37 W/m2
13:25 9.1 °C 5.7 °C 1002.6 hPa South 18.5 km/h 13.2 km/h 79% 0.0 mm WeatherDisplay:10.37 W/m2
13:30 9.1 °C 5.7 °C 1002.5 hPa SSW 12.9 km/h 25.7 km/h 79% 0.0 mm WeatherDisplay:10.37 W/m2
13:35 9.1 °C 5.7 °C 1002.4 hPa SSE 18.5 km/h 11.3 km/h 79% 0.0 mm WeatherDisplay:10.37 W/m2
13:40 9.1 °C 5.7 °C 1002.3 hPa SSW 12.9 km/h 22.5 km/h 79% 0.0 mm WeatherDisplay:10.37 W/m2
13:45 9.1 °C 5.8 °C 1001.9 hPa East 20.4 km/h 12.9 km/h 80% 0.0 mm WeatherDisplay:10.37 W/m2
13:50 9.1 °C 5.8 °C 1001.9 hPa South 14.5 km/h 24.1 km/h 80% 0.0 mm WeatherDisplay:10.37 W/m2
13:55 9.2 °C 5.9 °C 1001.8 hPa SSE 17.7 km/h 8.0 km/h 80% 0.0 mm WeatherDisplay:10.37 W/m2
14:00 9.2 °C 5.9 °C 1001.8 hPa South 12.9 km/h 20.9 km/h 80% 0.0 mm WeatherDisplay:10.37 W/m2
14:05 9.2 °C 5.9 °C 1001.7 hPa SSE 14.8 km/h 10.5 km/h 80% 0.0 mm WeatherDisplay:10.37 W/m2
14:10 9.1 °C 5.8 °C 1001.8 hPa SSW 14.5 km/h 24.1 km/h 80% 0.0 mm WeatherDisplay:10.37 W/m2
14:15 9.1 °C 5.8 °C 1001.8 hPa SSE 18.5 km/h 12.4 km/h 80% 0.0 mm WeatherDisplay:10.37 W/m2
14:20 9.1 °C 5.8 °C 1001.9 hPa SSW 14.5 km/h 25.7 km/h 80% 0.0 mm WeatherDisplay:10.37 W/m2
14:25 9.1 °C 5.8 °C 1002.0 hPa SW 25.9 km/h 19.1 km/h 80% 0.0 mm WeatherDisplay:10.37 W/m2
14:30 9.1 °C 5.8 °C 1001.9 hPa SSW 12.9 km/h 25.7 km/h 80% 0.0 mm WeatherDisplay:10.37 W/m2
14:35 9.0 °C 5.7 °C 1001.8 hPa SSW 29.6 km/h 20.6 km/h 80% 0.0 mm WeatherDisplay:10.37 W/m2
14:40 9.0 °C 5.7 °C 1001.8 hPa SSW 14.5 km/h 29.0 km/h 80% 0.0 mm WeatherDisplay:10.37 W/m2
14:45 9.0 °C 5.7 °C 1001.8 hPa SW 20.9 km/h 13.0 km/h 80% 0.0 mm WeatherDisplay:10.37 W/m2
14:50 9.0 °C 5.7 °C 1001.8 hPa SW 12.9 km/h 27.4 km/h 80% 0.0 mm WeatherDisplay:10.37 W/m2
14:55 9.0 °C 5.7 °C 1001.7 hPa South 18.5 km/h 12.2 km/h 80% 0.0 mm WeatherDisplay:10.37 W/m2
15:00 9.1 °C 5.8 °C 1001.6 hPa SSW 12.9 km/h 24.1 km/h 80% 0.0 mm WeatherDisplay:10.37 W/m2
15:05 9.1 °C 5.8 °C 1001.5 hPa SE 18.5 km/h 13.4 km/h 80% 0.0 mm WeatherDisplay:10.37 W/m2
15:10 9.1 °C 5.8 °C 1001.4 hPa SSW 14.5 km/h 27.4 km/h 80% 0.0 mm WeatherDisplay:10.37 W/m2
15:15 9.1 °C 5.8 °C 1001.4 hPa SSE 25.9 km/h 14.5 km/h 80% 0.0 mm WeatherDisplay:10.37 W/m2
15:20 9.1 °C 5.8 °C 1001.3 hPa SSW 11.3 km/h 32.2 km/h 80% 0.0 mm WeatherDisplay:10.37 W/m2
15:25 9.1 °C 5.8 °C 1001.2 hPa SSE 16.7 km/h 10.1 km/h 80% 0.0 mm WeatherDisplay:10.37 W/m2
15:30 9.1 °C 5.8 °C 1001.2 hPa SSW 11.3 km/h 27.4 km/h 80% 0.0 mm WeatherDisplay:10.37 W/m2
15:35 9.1 °C 5.8 °C 1001.2 hPa WSW 16.7 km/h 8.2 km/h 80% 0.0 mm WeatherDisplay:10.37 W/m2
15:40 9.1 °C 5.8 °C 1001.1 hPa SSW 11.3 km/h 24.1 km/h 80% 0.0 mm WeatherDisplay:10.37 W/m2
15:45 9.1 °C 5.8 °C 1001.1 hPa SSE 20.4 km/h 14.2 km/h 80% 0.0 mm WeatherDisplay:10.37 W/m2
15:50 9.1 °C 5.8 °C 1001.1 hPa SSW 12.9 km/h 25.7 km/h 80% 0.0 mm WeatherDisplay:10.37 W/m2
15:55 9.1 °C 5.9 °C 1001.0 hPa SSW 18.5 km/h 12.9 km/h 81% 0.0 mm WeatherDisplay:10.37 W/m2
16:00 9.0 °C 5.9 °C 1000.9 hPa SSW 11.3 km/h 20.9 km/h 81% 0.0 mm WeatherDisplay:10.37 W/m2
16:05 8.9 °C 5.8 °C 1000.9 hPa SSE 18.5 km/h 12.2 km/h 81% 0.0 mm WeatherDisplay:10.37 W/m2
16:10 8.9 °C 5.8 °C 1000.8 hPa SW 16.7 km/h 10.5 km/h 81% 0.0 mm WeatherDisplay:10.37 W/m2
16:15 8.9 °C 5.8 °C 1000.8 hPa SSE 22.2 km/h 12.7 km/h 81% 0.0 mm WeatherDisplay:10.37 W/m2
16:20 8.9 °C 5.8 °C 1000.7 hPa SSW 12.9 km/h 22.5 km/h 81% 0.0 mm WeatherDisplay:10.37 W/m2
16:25 8.9 °C 5.8 °C 1000.7 hPa SSW 18.5 km/h 11.4 km/h 81% 0.0 mm WeatherDisplay:10.37 W/m2
16:30 8.9 °C 5.8 °C 1000.7 hPa SSW 11.3 km/h 22.5 km/h 81% 0.0 mm WeatherDisplay:10.37 W/m2
16:35 8.8 °C 5.5 °C 1000.6 hPa SW 19.3 km/h 12.4 km/h 80% 0.0 mm WeatherDisplay:10.37 W/m2
16:40 8.7 °C 5.4 °C 1000.6 hPa SW 12.9 km/h 24.1 km/h 80% 0.0 mm WeatherDisplay:10.37 W/m2
16:45 8.7 °C 5.4 °C 1000.5 hPa SSW 14.8 km/h 9.3 km/h 80% 0.0 mm WeatherDisplay:10.37 W/m2
16:50 8.7 °C 5.4 °C 1000.5 hPa SSW 11.3 km/h 24.1 km/h 80% 0.0 mm WeatherDisplay:10.37 W/m2
16:55 8.8 °C 5.5 °C 1000.3 hPa SSW 16.7 km/h 7.4 km/h 80% 0.0 mm WeatherDisplay:10.37 W/m2
17:00 8.8 °C 5.5 °C 1000.1 hPa South 8.0 km/h 19.3 km/h 80% 0.0 mm WeatherDisplay:10.37 W/m2
17:05 8.7 °C 5.4 °C 1000.2 hPa SSW 12.9 km/h 6.1 km/h 80% 0.0 mm WeatherDisplay:10.37 W/m2
17:10 8.7 °C 5.4 °C 1000.2 hPa South 8.0 km/h 14.5 km/h 80% 0.0 mm WeatherDisplay:10.37 W/m2
17:15 8.7 °C 5.4 °C 1000.1 hPa SSE 13.0 km/h 8.2 km/h 80% 0.0 mm WeatherDisplay:10.37 W/m2
17:20 8.7 °C 5.4 °C 1000.0 hPa South 9.7 km/h 12.9 km/h 80% 0.0 mm WeatherDisplay:10.37 W/m2
17:25 8.7 °C 5.4 °C 999.8 hPa South 9.7 km/h 6.6 km/h 80% 0.0 mm WeatherDisplay:10.37 W/m2
17:30 8.6 °C 5.2 °C 999.6 hPa South 9.7 km/h 12.9 km/h 79% 0.0 mm WeatherDisplay:10.37 W/m2
17:35 8.5 °C 5.1 °C 999.4 hPa SSE 13.0 km/h 8.7 km/h 79% 0.0 mm WeatherDisplay:10.37 W/m2
17:40 8.4 °C 4.9 °C 999.3 hPa South 9.7 km/h 12.9 km/h 79% 0.0 mm WeatherDisplay:10.37 W/m2
17:45 8.2 °C 4.8 °C 999.1 hPa South 13.0 km/h 9.0 km/h 79% 0.0 mm WeatherDisplay:10.37 W/m2
17:50 8.1 °C 4.7 °C 999.0 hPa SSE 9.7 km/h 19.3 km/h 79% 0.0 mm WeatherDisplay:10.37 W/m2
17:55 7.9 °C 4.3 °C 999.0 hPa SSE 16.7 km/h 10.8 km/h 78% 0.0 mm WeatherDisplay:10.37 W/m2
18:00 7.8 °C 4.2 °C 999.1 hPa SSE 11.3 km/h 16.1 km/h 78% 0.0 mm WeatherDisplay:10.37 W/m2
18:05 7.6 °C 3.8 °C 998.8 hPa SSE 11.1 km/h 9.0 km/h 77% 0.0 mm WeatherDisplay:10.37 W/m2
18:10 7.5 °C 3.5 °C 998.7 hPa SSE 3.2 km/h 16.1 km/h 76% 0.0 mm WeatherDisplay:10.37 W/m2
18:15 7.3 °C 3.3 °C 998.7 hPa SSE 6.4 km/h 6.0 km/h 76% 0.0 mm WeatherDisplay:10.37 W/m2
18:20 7.2 °C 3.0 °C 998.7 hPa SSE 9.7 km/h 12.9 km/h 75% 0.0 mm WeatherDisplay:10.37 W/m2
18:25 7.1 °C 2.7 °C 998.6 hPa SSE 9.3 km/h 6.4 km/h 74% 0.0 mm WeatherDisplay:10.37 W/m2
18:30 7.0 °C 2.3 °C 998.6 hPa South 13.0 km/h 8.7 km/h 72% 0.0 mm WeatherDisplay:10.37 W/m2
18:35 7.0 °C 2.1 °C 998.5 hPa SSE 16.7 km/h 10.9 km/h 71% 0.0 mm WeatherDisplay:10.37 W/m2
18:40 7.1 °C 1.8 °C 998.4 hPa SSE 11.3 km/h 19.3 km/h 69% 0.0 mm WeatherDisplay:10.37 W/m2
18:45 7.2 °C 1.5 °C 998.3 hPa SSE 18.5 km/h 12.9 km/h 67% 0.0 mm WeatherDisplay:10.37 W/m2
18:50 7.4 °C 1.2 °C 998.0 hPa SSE 11.3 km/h 19.3 km/h 65% 0.0 mm WeatherDisplay:10.37 W/m2
18:55 7.6 °C 0.9 °C 997.9 hPa SE 13.0 km/h 10.8 km/h 63% 0.0 mm WeatherDisplay:10.37 W/m2
19:00 7.7 °C 0.8 °C 997.9 hPa SSE 11.3 km/h 19.3 km/h 62% 0.0 mm WeatherDisplay:10.37 W/m2
19:05 7.7 °C 0.8 °C 997.7 hPa SSE 13.0 km/h 9.7 km/h 62% 0.0 mm WeatherDisplay:10.37 W/m2
19:10 7.6 °C 0.8 °C 997.6 hPa SSE 11.3 km/h 17.7 km/h 62% 0.0 mm WeatherDisplay:10.37 W/m2
19:15 7.6 °C 0.8 °C 997.4 hPa SE 16.7 km/h 12.2 km/h 62% 0.0 mm WeatherDisplay:10.37 W/m2
19:20 7.6 °C 0.3 °C 997.3 hPa SE 12.9 km/h 19.3 km/h 60% 0.0 mm WeatherDisplay:10.37 W/m2
19:25 7.6 °C 0.3 °C 997.1 hPa SSE 16.7 km/h 12.4 km/h 60% 0.0 mm WeatherDisplay:10.37 W/m2
19:30 7.6 °C 0.1 °C 997.1 hPa SSE 12.9 km/h 19.3 km/h 59% 0.0 mm WeatherDisplay:10.37 W/m2
19:35 7.5 °C 0.0 °C 996.8 hPa SE 18.5 km/h 13.0 km/h 59% 0.0 mm WeatherDisplay:10.37 W/m2
19:40 7.4 °C -0.3 °C 996.8 hPa SSE 11.3 km/h 22.5 km/h 58% 0.0 mm WeatherDisplay:10.37 W/m2
19:45 7.4 °C -0.6 °C 996.7 hPa SE 16.7 km/h 11.6 km/h 57% 0.0 mm WeatherDisplay:10.37 W/m2
19:50 7.3 °C -0.6 °C 996.6 hPa SSE 12.9 km/h 19.3 km/h 57% 0.0 mm WeatherDisplay:10.37 W/m2
19:55 7.3 °C -0.7 °C 996.4 hPa SE 18.5 km/h 14.0 km/h 57% 0.0 mm WeatherDisplay:10.37 W/m2
20:00 7.3 °C -0.7 °C 996.3 hPa SSE 14.5 km/h 20.9 km/h 57% 0.0 mm WeatherDisplay:10.37 W/m2
20:05 7.3 °C -0.4 °C 996.1 hPa SSE 22.2 km/h 15.4 km/h 58% 0.0 mm WeatherDisplay:10.37 W/m2
20:10 7.3 °C 0.0 °C 996.0 hPa SSE 12.9 km/h 22.5 km/h 60% 0.0 mm WeatherDisplay:10.37 W/m2
20:15 7.3 °C 0.0 °C 995.9 hPa SE 22.2 km/h 18.5 km/h 60% 0.0 mm WeatherDisplay:10.37 W/m2
20:20 7.3 °C 0.2 °C 995.9 hPa SE 14.5 km/h 24.1 km/h 61% 0.0 mm WeatherDisplay:10.37 W/m2
20:25 7.2 °C 0.2 °C 995.8 hPa SE 18.5 km/h 14.5 km/h 61% 0.0 mm WeatherDisplay:10.37 W/m2
20:30 7.2 °C 0.2 °C 995.5 hPa SE 16.1 km/h 24.1 km/h 61% 0.0 mm WeatherDisplay:10.37 W/m2
20:35 7.2 °C 0.2 °C 995.3 hPa SE 27.8 km/h 17.5 km/h 61% 0.0 mm WeatherDisplay:10.37 W/m2
20:40 7.3 °C 0.2 °C 995.2 hPa SE 16.1 km/h 27.4 km/h 61% 0.0 mm WeatherDisplay:10.37 W/m2
20:45 7.4 °C 0.3 °C 995.0 hPa SE 27.8 km/h 20.9 km/h 61% 0.0 mm WeatherDisplay:10.37 W/m2
20:50 7.4 °C 0.6 °C 994.9 hPa SE 19.3 km/h 29.0 km/h 62% 0.0 mm WeatherDisplay:10.37 W/m2
20:55 7.5 °C 1.1 °C 994.7 hPa SSE 22.2 km/h 16.4 km/h 64% 0.0 mm WeatherDisplay:10.37 W/m2
21:00 7.5 °C 1.3 °C 994.6 hPa SE 14.5 km/h 29.0 km/h 65% 0.0 mm WeatherDisplay:10.37 W/m2
21:05 7.6 °C 1.4 °C 994.5 hPa SSE 22.2 km/h 14.5 km/h 65% 0.0 mm WeatherDisplay:10.37 W/m2
21:10 7.6 °C 1.7 °C 994.3 hPa SE 16.1 km/h 30.6 km/h 66% 0.0 mm WeatherDisplay:10.37 W/m2
21:15 7.6 °C 1.7 °C 994.2 hPa SSE 22.5 km/h 17.5 km/h 66% 0.0 mm WeatherDisplay:10.37 W/m2
21:20 7.6 °C 1.7 °C 994.2 hPa SSE 16.1 km/h 25.7 km/h 66% 0.2 mm WeatherDisplay:10.37 W/m2
21:25 7.6 °C 1.2 °C 994.1 hPa SSE 25.9 km/h 16.7 km/h 64% 0.2 mm WeatherDisplay:10.37 W/m2
21:30 7.6 °C 0.9 °C 994.0 hPa SE 19.3 km/h 25.7 km/h 63% 0.4 mm WeatherDisplay:10.37 W/m2
21:35 7.5 °C 0.2 °C 993.8 hPa SSE 20.9 km/h 14.6 km/h 60% 0.6 mm WeatherDisplay:10.37 W/m2
21:40 7.5 °C 0.0 °C 993.7 hPa SSE 19.3 km/h 25.7 km/h 59% 0.8 mm WeatherDisplay:10.37 W/m2
21:45 7.4 °C -0.8 °C 993.5 hPa SE 24.1 km/h 17.2 km/h 56% 1.0 mm WeatherDisplay:10.37 W/m2
21:50 7.4 °C -1.3 °C 993.3 hPa SSE 16.1 km/h 25.7 km/h 54% 1.2 mm WeatherDisplay:10.37 W/m2
21:55 7.4 °C -2.1 °C 993.1 hPa SE 24.1 km/h 20.4 km/h 51% 1.6 mm WeatherDisplay:10.37 W/m2
22:00 7.4 °C -2.7 °C 992.9 hPa SSE 19.3 km/h 27.4 km/h 49% 2.0 mm WeatherDisplay:10.37 W/m2
22:05 7.4 °C -3.5 °C 992.7 hPa SSE 24.1 km/h 18.8 km/h 46% 2.4 mm WeatherDisplay:10.37 W/m2
22:10 7.4 °C -4.1 °C 992.6 hPa SSE 16.1 km/h 27.4 km/h 44% 2.8 mm WeatherDisplay:10.37 W/m2
22:15 7.3 °C -5.1 °C 992.3 hPa SE 29.6 km/h 20.9 km/h 41% 3.0 mm WeatherDisplay:10.37 W/m2
22:20 7.4 °C -5.4 °C 992.2 hPa SSE 16.1 km/h 29.0 km/h 40% 3.2 mm WeatherDisplay:10.37 W/m2
22:25 7.3 °C -5.7 °C 992.0 hPa South 22.2 km/h 18.2 km/h 39% 3.4 mm WeatherDisplay:10.37 W/m2
22:30 7.3 °C -5.8 °C 991.8 hPa SSE 16.1 km/h 32.2 km/h 39% 3.6 mm WeatherDisplay:10.37 W/m2
22:35 7.3 °C -6.1 °C 991.5 hPa South 20.9 km/h 16.4 km/h 38% 3.6 mm WeatherDisplay:10.37 W/m2
22:40 7.2 °C -5.8 °C 991.3 hPa SE 16.1 km/h 29.0 km/h 39% 3.6 mm WeatherDisplay:10.37 W/m2
22:45 7.2 °C -5.6 °C 991.2 hPa SE 20.4 km/h 15.6 km/h 40% 3.6 mm WeatherDisplay:10.37 W/m2
22:50 7.1 °C -5.3 °C 991.0 hPa SSE 19.3 km/h 32.2 km/h 41% 3.6 mm WeatherDisplay:10.37 W/m2
22:55 7.1 °C -5.0 °C 990.9 hPa SSE 22.2 km/h 19.0 km/h 42% 3.2 mm WeatherDisplay:10.37 W/m2
23:00 7.1 °C -5.0 °C 990.7 hPa SSE 19.3 km/h 29.0 km/h 42% 3.0 mm WeatherDisplay:10.37 W/m2
23:05 7.1 °C -5.3 °C 990.4 hPa SE 27.8 km/h 19.6 km/h 41% 2.8 mm WeatherDisplay:10.37 W/m2
23:10 7.1 °C -6.0 °C 990.4 hPa SSE 24.1 km/h 33.8 km/h 39% 2.6 mm WeatherDisplay:10.37 W/m2
23:15 7.1 °C -6.6 °C 990.4 hPa SSE 32.2 km/h 19.8 km/h 37% 2.6 mm WeatherDisplay:10.37 W/m2
23:20 7.2 °C -7.3 °C 990.4 hPa SSE 20.9 km/h 33.8 km/h 35% 2.4 mm WeatherDisplay:10.37 W/m2
23:25 7.2 °C -8.0 °C 990.4 hPa SSE 31.5 km/h 22.5 km/h 33% 2.4 mm WeatherDisplay:10.37 W/m2
23:30 7.3 °C -8.7 °C 990.4 hPa SSE 24.1 km/h 38.6 km/h 31% 2.0 mm WeatherDisplay:10.37 W/m2
23:35 7.4 °C -8.7 °C 990.3 hPa SSW 29.6 km/h 14.6 km/h 31% 1.8 mm WeatherDisplay:10.37 W/m2
23:40 7.5 °C -8.2 °C 990.2 hPa South 20.9 km/h 40.2 km/h 32% 1.6 mm WeatherDisplay:10.37 W/m2
Juneau County Weather
Compliments of Weather Underground - 2 mb